sensor_id;sensor_type;location;lat;lon;timestamp;temperature;humidity
14924;DHT22;7554;43.600;1.480;2023-03-03T00:00:16;5.10;1.00
14924;DHT22;7554;43.600;1.480;2023-03-03T00:02:45;5.10;1.00
14924;DHT22;7554;43.600;1.480;2023-03-03T00:05:13;5.20;1.00
14924;DHT22;7554;43.600;1.480;2023-03-03T00:07:43;5.20;1.00
14924;DHT22;7554;43.600;1.480;2023-03-03T00:10:11;5.30;1.00
14924;DHT22;7554;43.600;1.480;2023-03-03T00:12:45;5.30;1.00
14924;DHT22;7554;43.600;1.480;2023-03-03T00:15:15;5.20;1.00
14924;DHT22;7554;43.600;1.480;2023-03-03T00:17:43;5.30;1.00
14924;DHT22;7554;43.600;1.480;2023-03-03T00:20:30;5.30;1.00
14924;DHT22;7554;43.600;1.480;2023-03-03T00:25:52;5.30;1.00
14924;DHT22;7554;43.600;1.480;2023-03-03T00:28:23;5.30;1.00
14924;DHT22;7554;43.600;1.480;2023-03-03T00:30:53;5.40;1.00
14924;DHT22;7554;43.600;1.480;2023-03-03T00:33:26;5.30;1.00
14924;DHT22;7554;43.600;1.480;2023-03-03T00:35:56;5.30;1.00
14924;DHT22;7554;43.600;1.480;2023-03-03T00:38:24;5.30;1.00
14924;DHT22;7554;43.600;1.480;2023-03-03T00:40:51;5.40;1.00
14924;DHT22;7554;43.600;1.480;2023-03-03T00:43:20;5.40;1.00
14924;DHT22;7554;43.600;1.480;2023-03-03T00:45:49;5.40;1.00
14924;DHT22;7554;43.600;1.480;2023-03-03T00:48:27;5.40;1.00
14924;DHT22;7554;43.600;1.480;2023-03-03T00:50:58;5.40;1.00
14924;DHT22;7554;43.600;1.480;2023-03-03T00:53:26;5.40;1.00
14924;DHT22;7554;43.600;1.480;2023-03-03T00:55:55;5.40;1.00
14924;DHT22;7554;43.600;1.480;2023-03-03T00:58:23;5.30;1.00
14924;DHT22;7554;43.600;1.480;2023-03-03T01:00:53;5.30;1.00
14924;DHT22;7554;43.600;1.480;2023-03-03T01:03:23;5.30;1.00
14924;DHT22;7554;43.600;1.480;2023-03-03T01:05:51;5.30;1.00
14924;DHT22;7554;43.600;1.480;2023-03-03T01:08:21;5.30;1.00
14924;DHT22;7554;43.600;1.480;2023-03-03T01:10:50;5.20;1.00
14924;DHT22;7554;43.600;1.480;2023-03-03T01:13:19;5.10;1.00
14924;DHT22;7554;43.600;1.480;2023-03-03T01:15:47;5.10;1.00
14924;DHT22;7554;43.600;1.480;2023-03-03T01:18:14;5.00;1.00
14924;DHT22;7554;43.600;1.480;2023-03-03T01:20:42;5.00;1.00
14924;DHT22;7554;43.600;1.480;2023-03-03T01:23:09;4.90;1.00
14924;DHT22;7554;43.600;1.480;2023-03-03T01:25:38;4.90;1.00
14924;DHT22;7554;43.600;1.480;2023-03-03T01:28:06;4.80;1.00
14924;DHT22;7554;43.600;1.480;2023-03-03T01:30:34;4.70;1.00
14924;DHT22;7554;43.600;1.480;2023-03-03T01:33:01;4.60;1.00
14924;DHT22;7554;43.600;1.480;2023-03-03T01:35:29;4.60;1.00
14924;DHT22;7554;43.600;1.480;2023-03-03T01:37:57;4.60;1.00
14924;DHT22;7554;43.600;1.480;2023-03-03T01:40:26;4.60;1.00
14924;DHT22;7554;43.600;1.480;2023-03-03T01:42:57;4.60;1.00
14924;DHT22;7554;43.600;1.480;2023-03-03T01:45:26;4.60;1.00
14924;DHT22;7554;43.600;1.480;2023-03-03T01:47:59;4.60;1.00
14924;DHT22;7554;43.600;1.480;2023-03-03T01:50:39;4.60;1.00
14924;DHT22;7554;43.600;1.480;2023-03-03T01:53:12;4.50;1.00
14924;DHT22;7554;43.600;1.480;2023-03-03T01:55:41;4.50;1.00
14924;DHT22;7554;43.600;1.480;2023-03-03T01:58:15;4.50;1.00
14924;DHT22;7554;43.600;1.480;2023-03-03T02:00:47;4.40;1.00
14924;DHT22;7554;43.600;1.480;2023-03-03T02:03:17;4.40;1.00
14924;DHT22;7554;43.600;1.480;2023-03-03T02:05:46;4.40;1.00
14924;DHT22;7554;43.600;1.480;2023-03-03T02:08:15;4.50;1.00
14924;DHT22;7554;43.600;1.480;2023-03-03T02:10:45;4.50;1.00
14924;DHT22;7554;43.600;1.480;2023-03-03T02:13:15;4.60;1.00
14924;DHT22;7554;43.600;1.480;2023-03-03T02:15:42;4.60;1.00
14924;DHT22;7554;43.600;1.480;2023-03-03T02:18:12;4.70;1.00
14924;DHT22;7554;43.600;1.480;2023-03-03T02:20:51;4.70;1.00
14924;DHT22;7554;43.600;1.480;2023-03-03T02:23:23;4.80;1.00
14924;DHT22;7554;43.600;1.480;2023-03-03T02:26:04;4.80;1.00
14924;DHT22;7554;43.600;1.480;2023-03-03T02:28:34;4.80;1.00
14924;DHT22;7554;43.600;1.480;2023-03-03T02:31:02;4.80;1.00
14924;DHT22;7554;43.600;1.480;2023-03-03T02:33:29;4.90;1.00
14924;DHT22;7554;43.600;1.480;2023-03-03T02:35:57;4.80;1.00
14924;DHT22;7554;43.600;1.480;2023-03-03T02:38:26;4.90;1.00
14924;DHT22;7554;43.600;1.480;2023-03-03T02:41:06;4.90;1.00
14924;DHT22;7554;43.600;1.480;2023-03-03T02:43:40;5.00;1.00
14924;DHT22;7554;43.600;1.480;2023-03-03T02:46:08;5.00;1.00
14924;DHT22;7554;43.600;1.480;2023-03-03T02:48:36;5.00;1.00
14924;DHT22;7554;43.600;1.480;2023-03-03T02:51:03;4.90;1.00
14924;DHT22;7554;43.600;1.480;2023-03-03T02:53:31;5.00;1.00
14924;DHT22;7554;43.600;1.480;2023-03-03T02:55:58;5.00;1.00
14924;DHT22;7554;43.600;1.480;2023-03-03T02:58:27;5.00;1.00
14924;DHT22;7554;43.600;1.480;2023-03-03T03:00:54;5.00;1.00
14924;DHT22;7554;43.600;1.480;2023-03-03T03:03:22;5.00;1.00
14924;DHT22;7554;43.600;1.480;2023-03-03T03:05:50;5.00;1.00
14924;DHT22;7554;43.600;1.480;2023-03-03T03:08:17;5.00;1.00
14924;DHT22;7554;43.600;1.480;2023-03-03T03:10:44;5.00;1.00
14924;DHT22;7554;43.600;1.480;2023-03-03T03:13:12;5.00;1.00
14924;DHT22;7554;43.600;1.480;2023-03-03T03:15:41;5.00;1.00
14924;DHT22;7554;43.600;1.480;2023-03-03T03:18:08;5.00;1.00
14924;DHT22;7554;43.600;1.480;2023-03-03T03:20:36;5.00;1.00
14924;DHT22;7554;43.600;1.480;2023-03-03T03:23:04;5.00;1.00
14924;DHT22;7554;43.600;1.480;2023-03-03T03:25:32;5.10;1.00
14924;DHT22;7554;43.600;1.480;2023-03-03T03:27:59;5.10;1.00
14924;DHT22;7554;43.600;1.480;2023-03-03T03:30:27;5.10;1.00
14924;DHT22;7554;43.600;1.480;2023-03-03T03:32:55;5.10;1.00
14924;DHT22;7554;43.600;1.480;2023-03-03T03:35:23;5.10;1.00
14924;DHT22;7554;43.600;1.480;2023-03-03T03:37:50;5.10;1.00
14924;DHT22;7554;43.600;1.480;2023-03-03T03:40:18;5.10;1.00
14924;DHT22;7554;43.600;1.480;2023-03-03T03:42:45;5.10;1.00
14924;DHT22;7554;43.600;1.480;2023-03-03T03:45:13;5.10;1.00
14924;DHT22;7554;43.600;1.480;2023-03-03T03:47:40;5.10;1.00
14924;DHT22;7554;43.600;1.480;2023-03-03T03:50:10;5.10;1.00
14924;DHT22;7554;43.600;1.480;2023-03-03T03:52:38;5.10;1.00
14924;DHT22;7554;43.600;1.480;2023-03-03T03:55:05;5.10;1.00
14924;DHT22;7554;43.600;1.480;2023-03-03T03:57:33;5.10;1.00
14924;DHT22;7554;43.600;1.480;2023-03-03T04:00:00;5.10;1.00
14924;DHT22;7554;43.600;1.480;2023-03-03T04:02:28;5.10;1.00
14924;DHT22;7554;43.600;1.480;2023-03-03T04:04:55;5.10;1.00
14924;DHT22;7554;43.600;1.480;2023-03-03T04:07:24;5.10;1.00
14924;DHT22;7554;43.600;1.480;2023-03-03T04:09:52;5.10;1.00
14924;DHT22;7554;43.600;1.480;2023-03-03T04:12:19;5.10;1.00
14924;DHT22;7554;43.600;1.480;2023-03-03T04:14:46;5.10;1.00
14924;DHT22;7554;43.600;1.480;2023-03-03T04:17:15;5.10;1.00
14924;DHT22;7554;43.600;1.480;2023-03-03T04:19:43;5.10;1.00
14924;DHT22;7554;43.600;1.480;2023-03-03T04:22:11;5.00;1.00
14924;DHT22;7554;43.600;1.480;2023-03-03T04:24:40;5.10;1.00
14924;DHT22;7554;43.600;1.480;2023-03-03T04:27:08;5.10;1.00
14924;DHT22;7554;43.600;1.480;2023-03-03T04:29:35;5.10;1.00
14924;DHT22;7554;43.600;1.480;2023-03-03T04:32:03;5.10;1.00
14924;DHT22;7554;43.600;1.480;2023-03-03T04:34:30;5.10;1.00
14924;DHT22;7554;43.600;1.480;2023-03-03T04:36:58;5.10;1.00
14924;DHT22;7554;43.600;1.480;2023-03-03T04:39:25;5.10;1.00
14924;DHT22;7554;43.600;1.480;2023-03-03T04:41:54;5.20;1.00
14924;DHT22;7554;43.600;1.480;2023-03-03T04:44:21;5.20;1.00
14924;DHT22;7554;43.600;1.480;2023-03-03T04:46:49;5.10;1.00
14924;DHT22;7554;43.600;1.480;2023-03-03T04:49:16;5.10;1.00
14924;DHT22;7554;43.600;1.480;2023-03-03T04:51:43;5.10;1.00
14924;DHT22;7554;43.600;1.480;2023-03-03T04:54:11;5.10;1.00
14924;DHT22;7554;43.600;1.480;2023-03-03T04:56:38;5.10;1.00
14924;DHT22;7554;43.600;1.480;2023-03-03T04:59:07;5.10;1.00
14924;DHT22;7554;43.600;1.480;2023-03-03T05:01:35;5.00;1.00
14924;DHT22;7554;43.600;1.480;2023-03-03T05:04:02;5.00;1.00
14924;DHT22;7554;43.600;1.480;2023-03-03T05:06:29;5.00;1.00
14924;DHT22;7554;43.600;1.480;2023-03-03T05:08:57;5.10;1.00
14924;DHT22;7554;43.600;1.480;2023-03-03T05:11:24;5.10;1.00
14924;DHT22;7554;43.600;1.480;2023-03-03T05:13:51;5.10;1.00
14924;DHT22;7554;43.600;1.480;2023-03-03T05:16:20;5.10;1.00
14924;DHT22;7554;43.600;1.480;2023-03-03T05:18:48;5.10;1.00
14924;DHT22;7554;43.600;1.480;2023-03-03T05:21:15;5.10;1.00
14924;DHT22;7554;43.600;1.480;2023-03-03T05:23:42;5.10;1.00
14924;DHT22;7554;43.600;1.480;2023-03-03T05:26:10;5.10;1.00
14924;DHT22;7554;43.600;1.480;2023-03-03T05:28:37;5.10;1.00
14924;DHT22;7554;43.600;1.480;2023-03-03T05:31:04;5.10;1.00
14924;DHT22;7554;43.600;1.480;2023-03-03T05:33:33;5.10;1.00
14924;DHT22;7554;43.600;1.480;2023-03-03T05:36:00;5.10;1.00
14924;DHT22;7554;43.600;1.480;2023-03-03T05:38:28;5.10;1.00
14924;DHT22;7554;43.600;1.480;2023-03-03T05:40:55;5.10;1.00
14924;DHT22;7554;43.600;1.480;2023-03-03T05:43:22;5.10;1.00
14924;DHT22;7554;43.600;1.480;2023-03-03T05:45:54;5.10;1.00
14924;DHT22;7554;43.600;1.480;2023-03-03T05:48:22;5.10;1.00
14924;DHT22;7554;43.600;1.480;2023-03-03T05:50:51;5.10;1.00
14924;DHT22;7554;43.600;1.480;2023-03-03T05:53:18;5.10;1.00
14924;DHT22;7554;43.600;1.480;2023-03-03T05:55:45;5.10;1.00
14924;DHT22;7554;43.600;1.480;2023-03-03T05:58:13;5.10;1.00
14924;DHT22;7554;43.600;1.480;2023-03-03T06:00:40;5.20;1.00
14924;DHT22;7554;43.600;1.480;2023-03-03T06:03:07;5.20;1.00
14924;DHT22;7554;43.600;1.480;2023-03-03T06:05:35;5.20;1.00
14924;DHT22;7554;43.600;1.480;2023-03-03T06:08:04;5.20;1.00
14924;DHT22;7554;43.600;1.480;2023-03-03T06:10:32;5.20;1.00
14924;DHT22;7554;43.600;1.480;2023-03-03T06:12:59;5.10;1.00
14924;DHT22;7554;43.600;1.480;2023-03-03T06:15:27;5.10;1.00
14924;DHT22;7554;43.600;1.480;2023-03-03T06:17:54;5.10;1.00
14924;DHT22;7554;43.600;1.480;2023-03-03T06:20:22;5.10;1.00
14924;DHT22;7554;43.600;1.480;2023-03-03T06:22:49;5.10;1.00
14924;DHT22;7554;43.600;1.480;2023-03-03T06:25:18;5.10;1.00
14924;DHT22;7554;43.600;1.480;2023-03-03T06:27:45;5.00;1.00
14924;DHT22;7554;43.600;1.480;2023-03-03T06:30:13;5.00;1.00
14924;DHT22;7554;43.600;1.480;2023-03-03T06:32:41;5.00;1.00
14924;DHT22;7554;43.600;1.480;2023-03-03T06:35:08;5.00;1.00
14924;DHT22;7554;43.600;1.480;2023-03-03T06:37:35;5.00;1.00
14924;DHT22;7554;43.600;1.480;2023-03-03T06:40:08;5.10;1.00
14924;DHT22;7554;43.600;1.480;2023-03-03T06:42:37;5.10;1.00
14924;DHT22;7554;43.600;1.480;2023-03-03T06:45:05;5.10;1.00
14924;DHT22;7554;43.600;1.480;2023-03-03T06:47:32;5.20;1.00
14924;DHT22;7554;43.600;1.480;2023-03-03T06:50:00;5.50;1.00
14924;DHT22;7554;43.600;1.480;2023-03-03T06:52:29;5.80;1.00
14924;DHT22;7554;43.600;1.480;2023-03-03T06:55:00;5.70;1.00
14924;DHT22;7554;43.600;1.480;2023-03-03T06:57:30;5.60;1.00
14924;DHT22;7554;43.600;1.480;2023-03-03T07:00:09;5.50;1.00
14924;DHT22;7554;43.600;1.480;2023-03-03T07:02:38;5.50;1.00
14924;DHT22;7554;43.600;1.480;2023-03-03T07:05:08;5.50;1.00
14924;DHT22;7554;43.600;1.480;2023-03-03T07:07:36;5.60;1.00
14924;DHT22;7554;43.600;1.480;2023-03-03T07:10:11;5.60;1.00
14924;DHT22;7554;43.600;1.480;2023-03-03T07:12:42;5.60;1.00
14924;DHT22;7554;43.600;1.480;2023-03-03T07:15:15;5.70;1.00
14924;DHT22;7554;43.600;1.480;2023-03-03T07:17:45;5.70;1.00
14924;DHT22;7554;43.600;1.480;2023-03-03T07:20:18;5.80;1.00
14924;DHT22;7554;43.600;1.480;2023-03-03T07:22:47;5.80;1.00
14924;DHT22;7554;43.600;1.480;2023-03-03T07:25:21;5.90;1.00
14924;DHT22;7554;43.600;1.480;2023-03-03T07:27:55;5.90;1.00
14924;DHT22;7554;43.600;1.480;2023-03-03T07:30:27;6.00;1.00
14924;DHT22;7554;43.600;1.480;2023-03-03T07:32:55;6.00;1.00
14924;DHT22;7554;43.600;1.480;2023-03-03T07:35:35;6.10;1.00
14924;DHT22;7554;43.600;1.480;2023-03-03T07:38:15;6.10;1.00
14924;DHT22;7554;43.600;1.480;2023-03-03T07:40:47;6.20;1.00
14924;DHT22;7554;43.600;1.480;2023-03-03T07:43:32;6.30;1.00
14924;DHT22;7554;43.600;1.480;2023-03-03T07:48:57;6.50;1.00
14924;DHT22;7554;43.600;1.480;2023-03-03T07:51:27;6.50;1.00
14924;DHT22;7554;43.600;1.480;2023-03-03T07:54:17;6.60;1.00
14924;DHT22;7554;43.600;1.480;2023-03-03T07:56:55;6.70;1.00
14924;DHT22;7554;43.600;1.480;2023-03-03T07:59:24;6.80;1.00
14924;DHT22;7554;43.600;1.480;2023-03-03T08:01:54;6.90;1.00
14924;DHT22;7554;43.600;1.480;2023-03-03T08:04:26;7.00;1.00
14924;DHT22;7554;43.600;1.480;2023-03-03T08:06:55;7.10;1.00
14924;DHT22;7554;43.600;1.480;2023-03-03T08:09:38;7.20;1.00
14924;DHT22;7554;43.600;1.480;2023-03-03T08:12:27;7.30;1.00
14924;DHT22;7554;43.600;1.480;2023-03-03T08:14:56;7.50;1.00
14924;DHT22;7554;43.600;1.480;2023-03-03T08:17:34;7.70;1.00
14924;DHT22;7554;43.600;1.480;2023-03-03T08:22:50;7.80;1.00
14924;DHT22;7554;43.600;1.480;2023-03-03T08:25:17;8.00;1.00
14924;DHT22;7554;43.600;1.480;2023-03-03T08:27:45;8.10;1.00
14924;DHT22;7554;43.600;1.480;2023-03-03T08:30:13;8.20;1.00
14924;DHT22;7554;43.600;1.480;2023-03-03T08:32:42;8.30;1.00
14924;DHT22;7554;43.600;1.480;2023-03-03T08:35:09;8.60;1.00
14924;DHT22;7554;43.600;1.480;2023-03-03T08:37:37;8.60;1.00
14924;DHT22;7554;43.600;1.480;2023-03-03T08:40:05;8.80;1.00
14924;DHT22;7554;43.600;1.480;2023-03-03T08:42:33;8.90;1.00
14924;DHT22;7554;43.600;1.480;2023-03-03T08:45:00;8.90;1.00
14924;DHT22;7554;43.600;1.480;2023-03-03T08:47:28;9.00;1.00
14924;DHT22;7554;43.600;1.480;2023-03-03T08:49:56;9.10;1.00
14924;DHT22;7554;43.600;1.480;2023-03-03T08:52:24;9.20;1.00
14924;DHT22;7554;43.600;1.480;2023-03-03T08:54:51;9.40;1.00
14924;DHT22;7554;43.600;1.480;2023-03-03T08:57:19;9.50;1.00
14924;DHT22;7554;43.600;1.480;2023-03-03T08:59:46;9.60;1.00
14924;DHT22;7554;43.600;1.480;2023-03-03T09:02:13;9.80;1.00
14924;DHT22;7554;43.600;1.480;2023-03-03T09:04:42;9.80;1.00
14924;DHT22;7554;43.600;1.480;2023-03-03T09:07:10;9.90;1.00
14924;DHT22;7554;43.600;1.480;2023-03-03T09:09:38;9.80;1.00
14924;DHT22;7554;43.600;1.480;2023-03-03T09:12:14;9.90;1.00
14924;DHT22;7554;43.600;1.480;2023-03-03T09:14:41;10.00;1.00
14924;DHT22;7554;43.600;1.480;2023-03-03T09:17:22;10.40;1.00
14924;DHT22;7554;43.600;1.480;2023-03-03T09:19:51;10.60;1.00
14924;DHT22;7554;43.600;1.480;2023-03-03T09:22:22;10.70;1.00
14924;DHT22;7554;43.600;1.480;2023-03-03T09:24:53;10.40;1.00
14924;DHT22;7554;43.600;1.480;2023-03-03T09:27:27;10.70;1.00
14924;DHT22;7554;43.600;1.480;2023-03-03T09:29:57;11.10;1.00
14924;DHT22;7554;43.600;1.480;2023-03-03T09:32:33;11.60;1.00
14924;DHT22;7554;43.600;1.480;2023-03-03T09:35:26;11.80;1.00
14924;DHT22;7554;43.600;1.480;2023-03-03T09:38:14;11.80;1.00
14924;DHT22;7554;43.600;1.480;2023-03-03T09:40:53;12.20;1.00
14924;DHT22;7554;43.600;1.480;2023-03-03T09:43:28;12.40;1.00
14924;DHT22;7554;43.600;1.480;2023-03-03T09:46:08;12.50;1.00
14924;DHT22;7554;43.600;1.480;2023-03-03T09:48:49;12.30;1.00
14924;DHT22;7554;43.600;1.480;2023-03-03T10:05:18;11.50;1.00
14924;DHT22;7554;43.600;1.480;2023-03-03T10:07:59;11.60;1.00
14924;DHT22;7554;43.600;1.480;2023-03-03T10:10:46;11.40;1.00
14924;DHT22;7554;43.600;1.480;2023-03-03T10:13:27;11.50;1.00
14924;DHT22;7554;43.600;1.480;2023-03-03T10:16:09;11.50;1.00
14924;DHT22;7554;43.600;1.480;2023-03-03T10:18:42;11.20;1.00
14924;DHT22;7554;43.600;1.480;2023-03-03T10:21:19;11.10;1.00
14924;DHT22;7554;43.600;1.480;2023-03-03T10:23:54;10.90;1.00
14924;DHT22;7554;43.600;1.480;2023-03-03T10:26:42;10.90;1.00
14924;DHT22;7554;43.600;1.480;2023-03-03T10:29:22;10.90;1.00
14924;DHT22;7554;43.600;1.480;2023-03-03T10:32:19;10.80;1.00
14924;DHT22;7554;43.600;1.480;2023-03-03T10:34:59;10.70;1.00
14924;DHT22;7554;43.600;1.480;2023-03-03T10:37:38;10.50;1.00
14924;DHT22;7554;43.600;1.480;2023-03-03T10:40:16;10.50;1.00
14924;DHT22;7554;43.600;1.480;2023-03-03T10:43:05;10.60;1.00
14924;DHT22;7554;43.600;1.480;2023-03-03T10:46:00;10.90;1.00
14924;DHT22;7554;43.600;1.480;2023-03-03T10:48:41;11.00;1.00
14924;DHT22;7554;43.600;1.480;2023-03-03T10:51:21;10.80;1.00
14924;DHT22;7554;43.600;1.480;2023-03-03T10:54:07;10.90;1.00
14924;DHT22;7554;43.600;1.480;2023-03-03T10:56:44;11.00;1.00
14924;DHT22;7554;43.600;1.480;2023-03-03T10:59:30;11.10;1.00
14924;DHT22;7554;43.600;1.480;2023-03-03T11:02:00;11.10;1.00
14924;DHT22;7554;43.600;1.480;2023-03-03T11:04:52;11.10;1.00
14924;DHT22;7554;43.600;1.480;2023-03-03T11:07:28;11.10;1.00
14924;DHT22;7554;43.600;1.480;2023-03-03T11:10:05;11.20;1.00
14924;DHT22;7554;43.600;1.480;2023-03-03T11:12:44;11.50;1.00
14924;DHT22;7554;43.600;1.480;2023-03-03T11:15:27;11.70;1.00
14924;DHT22;7554;43.600;1.480;2023-03-03T11:18:14;11.70;1.00
14924;DHT22;7554;43.600;1.480;2023-03-03T11:20:47;11.40;1.00
14924;DHT22;7554;43.600;1.480;2023-03-03T11:26:33;11.50;1.00
14924;DHT22;7554;43.600;1.480;2023-03-03T11:29:17;11.00;1.00
14924;DHT22;7554;43.600;1.480;2023-03-03T11:31:51;10.60;1.00
14924;DHT22;7554;43.600;1.480;2023-03-03T11:34:36;10.80;1.00
14924;DHT22;7554;43.600;1.480;2023-03-03T11:37:08;11.30;1.00
14924;DHT22;7554;43.600;1.480;2023-03-03T11:39:37;11.00;1.00
14924;DHT22;7554;43.600;1.480;2023-03-03T11:42:13;11.50;1.00
14924;DHT22;7554;43.600;1.480;2023-03-03T11:44:45;12.00;1.00
14924;DHT22;7554;43.600;1.480;2023-03-03T11:47:18;12.10;1.00
14924;DHT22;7554;43.600;1.480;2023-03-03T11:49:50;12.40;1.00
14924;DHT22;7554;43.600;1.480;2023-03-03T11:52:28;12.20;1.00
14924;DHT22;7554;43.600;1.480;2023-03-03T11:55:01;11.90;1.00
14924;DHT22;7554;43.600;1.480;2023-03-03T11:57:36;12.10;1.00
14924;DHT22;7554;43.600;1.480;2023-03-03T12:00:18;12.30;1.00
14924;DHT22;7554;43.600;1.480;2023-03-03T12:03:01;12.10;1.00
14924;DHT22;7554;43.600;1.480;2023-03-03T12:05:48;12.20;1.00
14924;DHT22;7554;43.600;1.480;2023-03-03T12:08:35;12.10;1.00
14924;DHT22;7554;43.600;1.480;2023-03-03T12:11:08;11.70;1.00
14924;DHT22;7554;43.600;1.480;2023-03-03T12:13:47;11.70;1.00
14924;DHT22;7554;43.600;1.480;2023-03-03T12:16:24;11.20;1.00
14924;DHT22;7554;43.600;1.480;2023-03-03T12:19:10;11.10;1.00
14924;DHT22;7554;43.600;1.480;2023-03-03T12:21:54;11.00;1.00
14924;DHT22;7554;43.600;1.480;2023-03-03T12:24:44;11.30;1.00
14924;DHT22;7554;43.600;1.480;2023-03-03T12:27:19;11.30;1.00
14924;DHT22;7554;43.600;1.480;2023-03-03T12:29:58;11.10;1.00
14924;DHT22;7554;43.600;1.480;2023-03-03T12:32:40;11.10;1.00
14924;DHT22;7554;43.600;1.480;2023-03-03T12:35:14;11.30;1.00
14924;DHT22;7554;43.600;1.480;2023-03-03T12:37:53;11.40;1.00
14924;DHT22;7554;43.600;1.480;2023-03-03T12:40:24;11.30;1.00
14924;DHT22;7554;43.600;1.480;2023-03-03T12:43:06;11.60;1.00
14924;DHT22;7554;43.600;1.480;2023-03-03T12:45:44;12.50;1.00
14924;DHT22;7554;43.600;1.480;2023-03-03T12:48:17;12.80;1.00
14924;DHT22;7554;43.600;1.480;2023-03-03T12:51:02;12.20;1.00
14924;DHT22;7554;43.600;1.480;2023-03-03T12:53:47;11.40;1.00
14924;DHT22;7554;43.600;1.480;2023-03-03T12:56:22;11.60;1.00
14924;DHT22;7554;43.600;1.480;2023-03-03T12:58:59;11.50;1.00
14924;DHT22;7554;43.600;1.480;2023-03-03T13:01:46;11.30;1.00
14924;DHT22;7554;43.600;1.480;2023-03-03T13:04:27;11.40;1.00
14924;DHT22;7554;43.600;1.480;2023-03-03T13:06:58;11.50;1.00
14924;DHT22;7554;43.600;1.480;2023-03-03T13:09:36;11.70;1.00
14924;DHT22;7554;43.600;1.480;2023-03-03T13:12:33;12.10;1.00
14924;DHT22;7554;43.600;1.480;2023-03-03T13:15:11;12.20;1.00
14924;DHT22;7554;43.600;1.480;2023-03-03T13:17:48;12.20;1.00
14924;DHT22;7554;43.600;1.480;2023-03-03T13:20:24;11.80;1.00
14924;DHT22;7554;43.600;1.480;2023-03-03T13:23:02;12.30;1.00
14924;DHT22;7554;43.600;1.480;2023-03-03T13:25:38;12.50;1.00
14924;DHT22;7554;43.600;1.480;2023-03-03T13:28:17;12.70;1.00
14924;DHT22;7554;43.600;1.480;2023-03-03T13:30:48;12.80;1.00
14924;DHT22;7554;43.600;1.480;2023-03-03T13:33:23;12.80;1.00
14924;DHT22;7554;43.600;1.480;2023-03-03T13:35:53;12.10;1.00
14924;DHT22;7554;43.600;1.480;2023-03-03T13:38:25;12.20;1.00
14924;DHT22;7554;43.600;1.480;2023-03-03T13:41:00;12.30;1.00
14924;DHT22;7554;43.600;1.480;2023-03-03T13:43:35;12.30;1.00
14924;DHT22;7554;43.600;1.480;2023-03-03T13:46:10;12.00;1.00
14924;DHT22;7554;43.600;1.480;2023-03-03T13:49:14;12.00;1.00
14924;DHT22;7554;43.600;1.480;2023-03-03T13:51:52;11.70;1.00
14924;DHT22;7554;43.600;1.480;2023-03-03T13:54:43;11.80;1.00
14924;DHT22;7554;43.600;1.480;2023-03-03T13:57:23;12.00;1.00
14924;DHT22;7554;43.600;1.480;2023-03-03T13:59:59;12.10;1.00
14924;DHT22;7554;43.600;1.480;2023-03-03T14:02:55;12.30;1.00
14924;DHT22;7554;43.600;1.480;2023-03-03T14:05:32;12.10;1.00
14924;DHT22;7554;43.600;1.480;2023-03-03T14:08:08;12.00;1.00
14924;DHT22;7554;43.600;1.480;2023-03-03T14:10:43;12.00;1.00
14924;DHT22;7554;43.600;1.480;2023-03-03T14:13:18;12.20;1.00
14924;DHT22;7554;43.600;1.480;2023-03-03T14:15:55;12.20;1.00
14924;DHT22;7554;43.600;1.480;2023-03-03T14:18:27;12.20;1.00
14924;DHT22;7554;43.600;1.480;2023-03-03T14:21:02;12.50;1.00
14924;DHT22;7554;43.600;1.480;2023-03-03T14:23:38;12.60;1.00
14924;DHT22;7554;43.600;1.480;2023-03-03T14:26:11;12.70;1.00
14924;DHT22;7554;43.600;1.480;2023-03-03T14:28:40;12.50;1.00
14924;DHT22;7554;43.600;1.480;2023-03-03T14:31:19;12.50;1.00
14924;DHT22;7554;43.600;1.480;2023-03-03T14:33:57;12.40;1.00
14924;DHT22;7554;43.600;1.480;2023-03-03T14:36:30;12.40;1.00
14924;DHT22;7554;43.600;1.480;2023-03-03T14:38:58;12.50;1.00
14924;DHT22;7554;43.600;1.480;2023-03-03T14:41:39;12.40;1.00
14924;DHT22;7554;43.600;1.480;2023-03-03T14:44:27;12.30;1.00
14924;DHT22;7554;43.600;1.480;2023-03-03T14:47:21;12.20;1.00
14924;DHT22;7554;43.600;1.480;2023-03-03T14:49:49;12.20;1.00
14924;DHT22;7554;43.600;1.480;2023-03-03T14:52:24;12.00;1.00
14924;DHT22;7554;43.600;1.480;2023-03-03T14:54:53;12.10;1.00
14924;DHT22;7554;43.600;1.480;2023-03-03T14:57:35;12.20;1.00
14924;DHT22;7554;43.600;1.480;2023-03-03T15:00:28;12.10;1.00
14924;DHT22;7554;43.600;1.480;2023-03-03T15:03:04;11.90;1.00
14924;DHT22;7554;43.600;1.480;2023-03-03T15:05:48;11.80;1.00
14924;DHT22;7554;43.600;1.480;2023-03-03T15:08:31;11.50;1.00
14924;DHT22;7554;43.600;1.480;2023-03-03T15:11:12;11.60;1.00
14924;DHT22;7554;43.600;1.480;2023-03-03T15:13:44;11.90;1.00
14924;DHT22;7554;43.600;1.480;2023-03-03T15:16:16;11.90;1.00
14924;DHT22;7554;43.600;1.480;2023-03-03T15:19:15;11.90;1.00
14924;DHT22;7554;43.600;1.480;2023-03-03T15:21:52;12.00;1.00
14924;DHT22;7554;43.600;1.480;2023-03-03T15:24:24;11.50;1.00
14924;DHT22;7554;43.600;1.480;2023-03-03T15:26:58;11.80;1.00
14924;DHT22;7554;43.600;1.480;2023-03-03T15:29:30;11.50;1.00
14924;DHT22;7554;43.600;1.480;2023-03-03T15:32:05;11.30;1.00
14924;DHT22;7554;43.600;1.480;2023-03-03T15:34:38;11.20;1.00
14924;DHT22;7554;43.600;1.480;2023-03-03T15:37:17;11.10;1.00
14924;DHT22;7554;43.600;1.480;2023-03-03T15:39:54;11.20;1.00
14924;DHT22;7554;43.600;1.480;2023-03-03T15:42:31;11.10;1.00
14924;DHT22;7554;43.600;1.480;2023-03-03T15:45:05;11.10;1.00
14924;DHT22;7554;43.600;1.480;2023-03-03T15:47:54;11.00;1.00
14924;DHT22;7554;43.600;1.480;2023-03-03T15:50:33;10.80;1.00
14924;DHT22;7554;43.600;1.480;2023-03-03T15:53:19;10.80;1.00
14924;DHT22;7554;43.600;1.480;2023-03-03T15:56:08;10.80;1.00
14924;DHT22;7554;43.600;1.480;2023-03-03T16:01:46;10.90;1.00
14924;DHT22;7554;43.600;1.480;2023-03-03T16:04:20;11.00;1.00
14924;DHT22;7554;43.600;1.480;2023-03-03T16:06:58;11.00;1.00
14924;DHT22;7554;43.600;1.480;2023-03-03T16:09:42;11.20;1.00
14924;DHT22;7554;43.600;1.480;2023-03-03T16:12:20;11.10;1.00
14924;DHT22;7554;43.600;1.480;2023-03-03T16:15:10;11.20;1.00
14924;DHT22;7554;43.600;1.480;2023-03-03T16:17:45;11.10;1.00
14924;DHT22;7554;43.600;1.480;2023-03-03T16:20:20;11.00;1.00
14924;DHT22;7554;43.600;1.480;2023-03-03T16:23:13;10.80;1.00
14924;DHT22;7554;43.600;1.480;2023-03-03T16:25:53;10.80;1.00
14924;DHT22;7554;43.600;1.480;2023-03-03T16:28:34;10.60;1.00
14924;DHT22;7554;43.600;1.480;2023-03-03T16:31:08;10.50;1.00
14924;DHT22;7554;43.600;1.480;2023-03-03T16:33:39;10.50;1.00
14924;DHT22;7554;43.600;1.480;2023-03-03T16:36:17;10.40;1.00
14924;DHT22;7554;43.600;1.480;2023-03-03T16:38:52;10.20;1.00
14924;DHT22;7554;43.600;1.480;2023-03-03T16:41:28;10.20;1.00
14924;DHT22;7554;43.600;1.480;2023-03-03T16:44:07;10.10;1.00
14924;DHT22;7554;43.600;1.480;2023-03-03T16:46:40;10.10;1.00
14924;DHT22;7554;43.600;1.480;2023-03-03T16:49:15;10.10;1.00
14924;DHT22;7554;43.600;1.480;2023-03-03T16:51:48;9.90;1.00
14924;DHT22;7554;43.600;1.480;2023-03-03T16:54:25;9.90;1.00
14924;DHT22;7554;43.600;1.480;2023-03-03T16:57:01;9.70;1.00
14924;DHT22;7554;43.600;1.480;2023-03-03T16:59:49;9.60;1.00
14924;DHT22;7554;43.600;1.480;2023-03-03T17:02:44;9.50;1.00
14924;DHT22;7554;43.600;1.480;2023-03-03T17:05:23;9.40;1.00
14924;DHT22;7554;43.600;1.480;2023-03-03T17:08:02;9.30;1.00
14924;DHT22;7554;43.600;1.480;2023-03-03T17:10:38;9.30;1.00
14924;DHT22;7554;43.600;1.480;2023-03-03T17:16:15;9.10;1.00
14924;DHT22;7554;43.600;1.480;2023-03-03T17:18:55;8.90;1.00
14924;DHT22;7554;43.600;1.480;2023-03-03T17:21:34;9.00;1.00
14924;DHT22;7554;43.600;1.480;2023-03-03T17:24:14;8.90;1.00